Time;durP1;ratioP1;P1;durP2;ratioP2;P2;SDS_P1;SDS_P2;PMS_P1;PMS_P2;Temp;Humidity;BMP_temperature;BMP_pressure;BME280_temperature;BME280_humidity;BME280_pressure;Samples;Min_cycle;Max_cycle;Signal;HPM_P1;HPM_P2
2022/09/05 00:02:57;;;;;;;6.40;5.90;;;;;;;23.74;49.52;95637.38;6172650;28;103130;-71
2022/09/05 00:06:06;;;;;;;6.20;5.80;;;;;;;23.71;49.22;95642.56;6172276;28;103423;-70
2022/09/05 00:09:19;;;;;;;8.23;6.40;;;;;;;23.70;49.28;95640.97;6165629;28;103780;-69
2022/09/05 00:12:25;;;;;;;6.57;6.10;;;;;;;23.69;49.08;95636.69;6184594;28;104194;-70
2022/09/05 00:15:38;;;;;;;6.30;5.90;;;;;;;23.64;49.32;95640.28;6174408;28;103087;-70
2022/09/05 00:19:01;;;;;;;6.20;5.80;;;;;;;23.64;49.42;95640.28;6143489;28;103360;-70
2022/09/05 00:22:38;;;;;;;7.20;6.70;;;;;;;23.75;48.96;95640.84;6168338;28;103321;-70
2022/09/05 00:26:18;;;;;;;6.37;5.97;;;;;;;23.60;48.87;95645.44;6159096;28;103014;-70
2022/09/05 00:29:38;;;;;;;6.67;6.17;;;;;;;23.59;48.88;95645.75;6148808;28;104284;-70
2022/09/05 00:33:16;;;;;;;6.63;6.17;;;;;;;23.57;48.75;95645.25;6165424;28;104554;-69
2022/09/05 00:36:36;;;;;;;6.93;6.43;;;;;;;23.57;49.06;95643.38;6152359;28;103236;-70
2022/09/05 00:39:42;;;;;;;6.00;5.70;;;;;;;23.66;48.88;95639.97;6158338;28;103236;-70
2022/09/05 00:43:03;;;;;;;6.63;6.10;;;;;;;23.65;48.73;95649.06;6171973;28;103274;-70
2022/09/05 00:46:11;;;;;;;6.40;5.90;;;;;;;23.64;48.56;95658.19;6171250;28;104537;-68
2022/09/05 00:49:20;;;;;;;6.77;6.37;;;;;;;23.60;48.68;95652.66;6158306;28;104192;-70
2022/09/05 00:52:30;;;;;;;7.37;6.87;;;;;;;23.56;48.81;95657.03;6150529;28;103103;-70
2022/09/05 00:55:40;;;;;;;6.60;6.20;;;;;;;23.58;48.20;95660.97;6161797;28;103090;-70
2022/09/05 00:58:59;;;;;;;7.30;6.70;;;;;;;23.54;48.72;95660.00;6155726;28;103669;-70
2022/09/05 01:02:12;;;;;;;6.90;6.40;;;;;;;23.52;48.63;95654.16;6186109;28;103938;-70
2022/09/05 01:05:31;;;;;;;6.60;6.10;;;;;;;23.45;48.53;95656.44;6162133;28;103694;-70
2022/09/05 01:09:03;;;;;;;6.63;6.20;;;;;;;23.42;49.04;95662.38;6163103;28;103306;-70
2022/09/05 01:12:21;;;;;;;6.80;6.40;;;;;;;23.42;48.84;95656.25;6160772;28;103189;-70
2022/09/05 01:15:34;;;;;;;7.23;6.73;;;;;;;23.47;48.56;95661.47;6149872;28;103667;-70
2022/09/05 01:18:50;;;;;;;6.30;5.90;;;;;;;23.47;48.68;95659.59;6158525;28;103035;-70
2022/09/05 01:22:25;;;;;;;6.57;6.07;;;;;;;23.47;48.47;95653.47;6185099;28;103598;-70
2022/09/05 01:25:40;;;;;;;5.50;5.20;;;;;;;23.39;48.86;95664.88;6172340;28;103472;-70
2022/09/05 01:29:01;;;;;;;5.90;5.50;;;;;;;23.42;48.38;95659.72;6152975;28;103160;-70
2022/09/05 01:32:30;;;;;;;6.40;5.90;;;;;;;23.45;48.28;95658.31;6179290;28;104212;-70
2022/09/05 01:35:55;;;;;;;5.83;5.43;;;;;;;23.38;48.45;95661.41;6160716;28;104189;-70
2022/09/05 01:39:18;;;;;;;6.10;5.50;;;;;;;23.33;48.50;95656.16;6147372;28;103202;-70
2022/09/05 01:42:49;;;;;;;6.33;5.83;;;;;;;23.32;48.40;95651.09;6161413;28;103123;-70
2022/09/05 01:45:59;;;;;;;6.60;6.10;;;;;;;23.28;48.44;95648.22;6166809;28;103226;-70
2022/09/05 01:49:12;;;;;;;6.00;5.60;;;;;;;23.29;48.42;95647.94;6148221;28;103697;-70
2022/09/05 01:52:42;;;;;;;6.50;6.00;;;;;;;23.37;48.62;95651.81;6163163;28;103089;-71
2022/09/05 01:56:17;;;;;;;5.83;5.43;;;;;;;23.44;48.57;95648.72;6155137;28;104287;-69
2022/09/05 01:59:32;;;;;;;5.57;5.17;;;;;;;23.45;48.72;95651.09;6163135;28;103303;-67
2022/09/05 02:02:44;;;;;;;6.30;5.90;;;;;;;23.53;48.23;95654.97;6179212;28;103351;-70
2022/09/05 02:06:35;;;;;;;6.23;5.83;;;;;;;23.46;48.32;95649.22;6168002;28;103585;-70
2022/09/05 02:09:53;;;;;;;6.00;5.50;;;;;;;23.40;48.56;95648.53;6165837;28;104482;-70
2022/09/05 02:13:25;;;;;;;5.80;5.40;;;;;;;23.40;48.81;95663.78;6149593;28;103247;-70
2022/09/05 02:16:42;;;;;;;6.03;5.53;;;;;;;23.45;49.20;95666.34;6157557;28;103120;-70
2022/09/05 02:19:53;;;;;;;5.50;5.10;;;;;;;23.53;49.39;95662.97;6167775;28;103739;-70
2022/09/05 02:23:05;;;;;;;5.60;5.03;;;;;;;23.57;49.47;95658.59;6169743;28;103611;-70
2022/09/05 02:26:34;;;;;;;6.50;5.87;;;;;;;23.53;49.40;95652.28;6163937;28;102800;-70
2022/09/05 02:29:44;;;;;;;5.97;5.37;;;;;;;23.57;49.48;95656.72;6168514;28;103600;-71
2022/09/05 02:33:06;;;;;;;6.00;4.40;;;;;;;23.49;49.32;95656.63;6164299;28;103307;-70
2022/09/05 02:36:15;;;;;;;4.97;4.50;;;;;;;23.38;49.59;95655.28;6156307;28;103275;-68
2022/09/05 02:39:35;;;;;;;5.77;4.47;;;;;;;23.29;49.57;95663.97;6153315;28;106119;-70
2022/09/05 02:43:06;;;;;;;5.30;4.90;;;;;;;23.44;49.22;95667.44;6160854;28;104369;-70
2022/09/05 02:46:36;;;;;;;9.17;4.73;;;;;;;23.45;49.72;95667.13;6151150;28;104164;-70
2022/09/05 02:49:47;;;;;;;5.00;4.60;;;;;;;23.44;49.27;95664.75;6160968;28;103357;-71
2022/09/05 02:53:15;;;;;;;4.97;4.67;;;;;;;23.48;49.52;95665.72;6168718;28;102812;-70
2022/09/05 02:56:58;;;;;;;6.03;5.53;;;;;;;23.53;49.57;95668.31;6157625;28;103329;-67
2022/09/05 03:00:24;;;;;;;5.03;4.63;;;;;;;23.59;49.49;95672.44;6172284;28;102839;-68
2022/09/05 03:03:36;;;;;;;5.10;4.70;;;;;;;23.50;49.23;95675.03;6182329;28;103173;-70
2022/09/05 03:06:59;;;;;;;4.70;4.40;;;;;;;23.25;48.83;95673.66;6166617;28;104454;-69
2022/09/05 03:10:25;;;;;;;6.57;4.90;;;;;;;23.12;49.34;95669.09;6148354;28;103720;-70
2022/09/05 03:14:29;;;;;;;5.37;4.83;;;;;;;23.16;48.47;95670.06;6159664;28;102700;-70
2022/09/05 03:17:54;;;;;;;5.30;4.83;;;;;;;23.27;48.72;95668.78;6156446;28;103357;-70
2022/09/05 03:21:40;;;;;;;6.40;5.80;;;;;;;23.22;48.90;95671.56;6162827;28;104025;-70
2022/09/05 03:25:19;;;;;;;4.93;4.43;;;;;;;23.10;48.56;95673.94;6159361;28;103287;-70
2022/09/05 03:28:54;;;;;;;7.70;5.33;;;;;;;23.17;48.41;95681.53;6140747;28;103140;-69
2022/09/05 03:32:23;;;;;;;5.40;5.00;;;;;;;22.29;50.70;95670.78;6172201;28;104530;-69
2022/09/05 03:36:03;;;;;;;6.73;4.97;;;;;;;22.75;49.58;95666.59;6184474;28;103217;-69
2022/09/05 03:39:41;;;;;;;4.93;4.63;;;;;;;23.00;49.18;95671.44;6166576;28;102949;-69
2022/09/05 03:43:01;;;;;;;5.40;5.00;;;;;;;23.01;49.08;95678.38;6168008;28;103629;-70
2022/09/05 03:46:21;;;;;;;8.50;5.73;;;;;;;23.03;48.75;95686.91;6169013;28;103219;-70
2022/09/05 03:49:48;;;;;;;6.40;5.40;;;;;;;23.08;48.79;95696.69;6161697;28;103697;-70
2022/09/05 03:53:37;;;;;;;6.30;5.70;;;;;;;23.08;48.54;95699.34;6173525;28;104473;-69
2022/09/05 03:57:23;;;;;;;15.10;13.83;;;;;;;23.35;48.82;95711.94;6150058;28;103359;-69
2022/09/05 04:00:58;;;;;;;15.17;13.93;;;;;;;23.51;48.86;95708.66;6149993;28;103122;-70
2022/09/05 04:04:29;;;;;;;9.20;8.40;;;;;;;23.54;48.44;95705.41;6179982;28;103042;-70
2022/09/05 04:07:58;;;;;;;6.23;5.83;;;;;;;23.27;49.74;95714.19;6146769;28;106097;-71
2022/09/05 04:11:34;;;;;;;6.37;5.77;;;;;;;23.38;48.80;95717.50;6161481;28;102911;-69
2022/09/05 04:14:46;;;;;;;6.93;6.27;;;;;;;23.54;48.65;95724.13;6179235;28;103509;-69
2022/09/05 04:17:55;;;;;;;11.00;7.20;;;;;;;23.63;48.65;95720.72;6150692;28;104515;-68
2022/09/05 04:21:13;;;;;;;8.07;7.27;;;;;;;23.68;48.43;95724.09;6186326;28;103281;-70
2022/09/05 04:24:28;;;;;;;11.10;10.13;;;;;;;23.57;48.01;95723.53;6168084;28;103139;-69
2022/09/05 04:27:46;;;;;;;15.80;12.23;;;;;;;23.53;48.24;95727.09;6152005;28;103939;-69
2022/09/05 04:30:55;;;;;;;15.40;14.00;;;;;;;23.56;48.12;95735.28;6154076;28;103253;-69
2022/09/05 04:34:15;;;;;;;13.93;12.70;;;;;;;23.59;48.17;95740.03;6162347;28;104166;-69
2022/09/05 04:37:36;;;;;;;13.70;10.97;;;;;;;23.53;48.07;95733.22;6157598;28;103800;-68
2022/09/05 04:40:59;;;;;;;11.87;10.97;;;;;;;23.55;48.36;95746.28;6127213;28;106762;-69
2022/09/05 04:44:11;;;;;;;9.57;8.77;;;;;;;23.60;47.96;95746.19;6136321;28;105906;-69
2022/09/05 04:47:20;;;;;;;21.17;19.47;;;;;;;23.61;48.13;95753.09;6147178;28;103724;-69
2022/09/05 04:50:26;;;;;;;22.20;20.40;;;;;;;23.63;48.03;95755.47;6154422;28;105666;-69
2022/09/05 04:54:04;;;;;;;25.47;23.37;;;;;;;23.62;47.88;95757.34;6154421;28;104026;-69
2022/09/05 04:57:19;;;;;;;20.10;18.40;;;;;;;23.62;48.44;95757.34;6156833;28;102963;-68
2022/09/05 05:00:29;;;;;;;15.97;14.67;;;;;;;23.64;48.17;95771.19;6160061;28;103300;-69
2022/09/05 05:03:52;;;;;;;13.20;12.10;;;;;;;23.64;48.06;95771.19;6150141;28;102738;-70
2022/09/05 05:07:22;;;;;;;13.33;12.23;;;;;;;23.65;48.49;95782.69;6158270;28;103183;-69
2022/09/05 05:10:32;;;;;;;13.40;12.40;;;;;;;23.65;48.23;95780.81;6160472;28;103211;-69
2022/09/05 05:14:02;;;;;;;15.13;13.83;;;;;;;23.66;48.08;95786.94;6151377;28;102965;-69
2022/09/05 05:17:33;;;;;;;13.13;12.13;;;;;;;23.54;48.37;95787.44;6157754;28;103480;-70
2022/09/05 05:21:03;;;;;;;14.53;13.30;;;;;;;23.49;48.51;95791.00;6137362;28;104817;-69
2022/09/05 05:24:14;;;;;;;12.87;11.77;;;;;;;23.52;48.36;95798.44;6136867;28;103043;-69
2022/09/05 05:27:22;;;;;;;10.80;9.90;;;;;;;23.45;48.11;95800.69;6138199;28;103236;-69
2022/09/05 05:30:31;;;;;;;11.10;10.10;;;;;;;23.39;48.52;95793.88;6159518;28;103365;-69
2022/09/05 05:33:39;;;;;;;10.50;9.60;;;;;;;23.39;48.19;95798.41;6162285;28;104042;-69
2022/09/05 05:36:51;;;;;;;12.53;11.53;;;;;;;23.40;48.23;95800.78;6148889;28;103092;-69
2022/09/05 05:40:05;;;;;;;12.03;11.13;;;;;;;23.31;48.93;95805.22;6155928;28;103371;-69
2022/09/05 05:43:17;;;;;;;11.20;10.30;;;;;;;23.46;48.66;95812.16;6161248;28;102980;-69
2022/09/05 05:46:31;;;;;;;11.03;10.23;;;;;;;23.54;48.37;95806.16;6159647;28;105257;-69
2022/09/05 05:49:45;;;;;;;10.80;10.00;;;;;;;23.57;48.36;95809.03;6146252;28;103046;-69
2022/09/05 05:53:08;;;;;;;10.30;9.60;;;;;;;23.59;48.60;95809.50;6160992;28;103351;-69
2022/09/05 05:56:43;;;;;;;9.97;9.20;;;;;;;23.66;48.04;95811.78;6159952;28;103089;-68
2022/09/05 06:00:07;;;;;;;11.30;10.50;;;;;;;23.62;48.42;95816.13;6135445;28;103241;-69
2022/09/05 06:04:05;;;;;;;10.43;9.60;;;;;;;23.68;48.24;95816.81;6160674;28;103163;-70
2022/09/05 06:07:18;;;;;;;9.00;8.30;;;;;;;23.80;47.79;95811.78;6155457;28;104883;-69
2022/09/05 06:10:56;;;;;;;9.10;8.40;;;;;;;23.92;47.64;95809.41;6152203;28;104134;-68
2022/09/05 06:14:58;;;;;;;8.63;8.03;;;;;;;24.03;47.61;95813.50;6159842;28;102698;-69
2022/09/05 06:18:46;;;;;;;9.17;8.47;;;;;;;24.08;47.36;95816.06;6144351;28;103902;-69
2022/09/05 06:22:14;;;;;;;7.30;6.80;;;;;;;23.99;47.22;95814.34;6149934;28;103128;-69
2022/09/05 06:26:08;;;;;;;6.13;5.63;;;;;;;23.62;47.28;95821.47;6159093;28;103049;-70
2022/09/05 06:29:23;;;;;;;6.13;5.60;;;;;;;23.33;47.78;95826.28;6153904;28;103406;-69
2022/09/05 06:32:54;;;;;;;5.67;5.27;;;;;;;23.45;47.44;95821.25;6154741;28;103312;-69
2022/09/05 06:36:18;;;;;;;5.93;5.20;;;;;;;23.63;46.82;95824.94;6154663;28;105630;-70
2022/09/05 06:39:40;;;;;;;5.90;5.40;;;;;;;23.70;46.89;95828.81;6149235;28;103275;-70
2022/09/05 06:43:03;;;;;;;5.70;5.20;;;;;;;23.74;46.97;95831.69;6160192;28;102864;-70
2022/09/05 06:46:20;;;;;;;5.80;5.27;;;;;;;23.85;46.63;95836.53;6148029;28;103571;-70
2022/09/05 06:50:04;;;;;;;5.20;4.90;;;;;;;23.90;46.66;95836.44;6155302;28;103351;-69
2022/09/05 06:54:00;;;;;;;6.10;5.60;;;;;;;23.93;47.02;95834.25;6161944;28;102743;-69
2022/09/05 06:57:35;;;;;;;5.30;4.90;;;;;;;23.96;46.54;95837.13;6149335;28;103066;-67
2022/09/05 07:00:49;;;;;;;5.50;5.20;;;;;;;23.95;46.68;95840.88;6139772;28;103068;-70
2022/09/05 07:04:09;;;;;;;5.57;5.00;;;;;;;23.89;46.66;95837.53;6139711;28;103752;-69
2022/09/05 07:07:39;;;;;;;5.40;5.00;;;;;;;23.77;46.46;95837.22;6138605;28;103322;-70
2022/09/05 07:10:58;;;;;;;5.70;5.30;;;;;;;23.63;46.30;95838.31;6140337;28;104231;-71
2022/09/05 07:14:24;;;;;;;5.40;4.97;;;;;;;23.61;46.34;95830.59;6138745;28;103020;-70
2022/09/05 07:17:38;;;;;;;4.60;4.30;;;;;;;23.79;46.10;95829.69;6148524;28;104983;-70
2022/09/05 07:21:07;;;;;;;4.70;4.40;;;;;;;23.99;45.64;95825.81;6133453;28;104417;-68
2022/09/05 07:24:31;;;;;;;4.23;3.93;;;;;;;23.94;45.37;95825.94;6138782;28;103133;-70
2022/09/05 07:27:59;;;;;;;4.20;3.90;;;;;;;24.00;45.59;95826.66;6150089;28;104405;-69
2022/09/05 07:31:27;;;;;;;3.80;3.50;;;;;;;23.98;44.65;95831.47;6154080;28;104055;-69
2022/09/05 07:34:40;;;;;;;3.67;3.37;;;;;;;24.00;44.24;95822.09;6163999;28;105881;-68
2022/09/05 07:37:46;;;;;;;3.63;3.40;;;;;;;23.98;44.46;95816.22;6158554;28;103230;-69
2022/09/05 07:40:56;;;;;;;3.73;3.43;;;;;;;24.09;44.26;95819.53;6157805;28;103528;-69
2022/09/05 07:44:05;;;;;;;3.63;3.43;;;;;;;24.20;43.96;95815.56;6158573;28;105582;-69
2022/09/05 07:47:19;;;;;;;4.23;3.60;;;;;;;24.29;44.03;95819.09;6157982;28;103110;-69
2022/09/05 07:50:23;;;;;;;8.23;7.63;;;;;;;24.32;43.88;95815.81;6161978;28;103488;-69
2022/09/05 07:53:47;;;;;;;4.80;4.40;;;;;;;24.32;42.79;95813.13;6152004;28;103095;-69
2022/09/05 07:57:15;;;;;;;3.47;3.17;;;;;;;24.17;42.69;95808.91;6158973;28;103826;-69
2022/09/05 08:00:35;;;;;;;3.00;2.80;;;;;;;24.18;42.63;95807.00;6161366;28;103008;-69
2022/09/05 08:03:42;;;;;;;3.53;3.23;;;;;;;24.38;42.86;95808.47;6157450;28;103527;-69
2022/09/05 08:06:45;;;;;;;3.47;3.07;;;;;;;24.35;43.07;95811.72;6154670;28;103052;-69
2022/09/05 08:10:14;;;;;;;2.63;2.43;;;;;;;24.33;42.39;95809.34;6156257;28;103010;-69
2022/09/05 08:13:22;;;;;;;3.43;3.23;;;;;;;24.16;43.19;95809.19;6163269;28;102788;-69
2022/09/05 08:16:33;;;;;;;4.10;3.10;;;;;;;24.22;43.05;95818.72;6150169;28;105108;-68
2022/09/05 08:20:16;;;;;;;4.20;2.90;;;;;;;24.06;42.75;95812.09;6159557;28;104184;-69
2022/09/05 08:23:34;;;;;;;3.57;3.37;;;;;;;24.24;42.85;95815.75;6067908;28;103195;-69
2022/09/05 08:26:44;;;;;;;3.10;2.80;;;;;;;24.40;42.52;95825.81;6149992;28;103016;-69
2022/09/05 08:29:53;;;;;;;5.30;3.30;;;;;;;24.49;42.64;95823.97;6157556;28;105153;-69
2022/09/05 08:33:23;;;;;;;4.03;3.67;;;;;;;24.63;42.70;95817.81;6159794;28;102685;-69
2022/09/05 08:36:33;;;;;;;4.33;3.90;;;;;;;24.60;43.05;95815.72;6161790;28;104285;-66
2022/09/05 08:39:37;;;;;;;3.93;3.47;;;;;;;24.57;42.77;95819.81;6147237;28;103360;-69
2022/09/05 08:42:51;;;;;;;3.83;3.53;;;;;;;24.66;42.53;95822.53;6163102;28;104967;-67
2022/09/05 08:46:21;;;;;;;4.20;3.33;;;;;;;24.76;42.66;95812.44;6161203;28;102748;-69
2022/09/05 08:50:17;;;;;;;3.70;3.40;;;;;;;24.49;41.94;95818.63;6147315;28;104551;-69
2022/09/05 08:53:34;;;;;;;3.13;2.90;;;;;;;24.53;42.62;95818.03;6146715;28;104151;-70
2022/09/05 08:56:55;;;;;;;2.83;2.63;;;;;;;24.55;42.69;95816.66;6160204;28;103298;-69
2022/09/05 09:00:05;;;;;;;3.80;3.50;;;;;;;24.50;42.43;95814.84;6153598;28;103345;-70
2022/09/05 09:03:30;;;;;;;3.40;3.10;;;;;;;24.46;42.62;95816.56;6156943;28;102710;-69
2022/09/05 09:07:05;;;;;;;3.10;2.90;;;;;;;24.56;42.58;95822.78;6160309;28;102987;-69
2022/09/05 09:10:44;;;;;;;3.33;3.03;;;;;;;24.64;42.26;95817.50;6161554;28;102964;-70
2022/09/05 09:14:01;;;;;;;2.93;2.73;;;;;;;24.72;42.28;95816.03;6152167;28;103607;-71
2022/09/05 09:17:27;;;;;;;3.20;3.00;;;;;;;24.82;40.93;95810.41;6158406;28;104706;-69
2022/09/05 09:20:41;;;;;;;3.17;2.87;;;;;;;24.88;41.10;95819.13;6160572;28;103073;-69
2022/09/05 09:23:58;;;;;;;5.67;5.17;;;;;;;24.99;41.18;95815.09;6153074;28;104090;-69
2022/09/05 09:27:09;;;;;;;3.90;3.60;;;;;;;24.99;41.26;95807.84;6160203;28;103447;-71
2022/09/05 09:30:15;;;;;;;3.93;3.60;;;;;;;24.98;41.61;95808.94;6154010;28;103111;-70
2022/09/05 09:33:41;;;;;;;4.10;3.70;;;;;;;24.96;42.10;95813.81;6335930;27;102967;-70
2022/09/05 09:37:08;;;;;;;4.03;3.73;;;;;;;24.92;42.08;95814.75;6296244;27;104967;-70
2022/09/05 09:40:39;;;;;;;3.90;3.60;;;;;;;24.87;42.17;95807.63;6275993;27;102925;-69
2022/09/05 09:44:32;;;;;;;3.60;3.40;;;;;;;24.83;42.20;95811.22;6282928;27;102936;-70
2022/09/05 09:47:54;;;;;;;3.93;3.63;;;;;;;24.79;42.29;95803.00;6263114;27;102781;-70
2022/09/05 09:51:36;;;;;;;3.23;3.03;;;;;;;24.79;42.36;95801.13;6282815;27;102807;-70
2022/09/05 09:55:32;;;;;;;3.77;3.47;;;;;;;24.85;42.12;95804.44;6253401;27;103376;-70
2022/09/05 09:59:14;;;;;;;3.97;3.67;;;;;;;24.88;42.11;95801.19;6233295;27;103509;-71
2022/09/05 10:02:48;;;;;;;6.13;5.53;;;;;;;24.96;42.15;95797.75;6282698;27;103086;-69
2022/09/05 10:06:51;;;;;;;4.73;4.33;;;;;;;24.93;42.31;95792.22;6280968;27;102771;-66
2022/09/05 10:10:57;;;;;;;4.83;4.53;;;;;;;24.94;42.65;95780.41;6274495;27;103136;-70
2022/09/05 10:14:47;;;;;;;4.20;3.90;;;;;;;24.89;42.76;95776.00;6275694;27;102736;-70
2022/09/05 10:18:20;;;;;;;4.47;4.10;;;;;;;24.84;42.79;95778.78;6280375;27;103366;-69
2022/09/05 10:21:51;;;;;;;4.30;3.90;;;;;;;24.81;43.18;95771.34;6248700;27;102956;-70
2022/09/05 10:25:28;;;;;;;4.43;4.13;;;;;;;24.78;43.14;95772.75;6258468;27;102921;-69
2022/09/05 10:28:39;;;;;;;4.67;4.37;;;;;;;24.76;43.03;95769.59;6275550;27;102974;-70
2022/09/05 10:31:56;;;;;;;4.60;4.30;;;;;;;24.77;43.19;95770.38;6286532;27;103358;-70
2022/09/05 10:35:25;;;;;;;4.30;4.00;;;;;;;24.79;42.82;95760.97;6309694;27;102988;-70
2022/09/05 10:38:40;;;;;;;3.27;3.07;;;;;;;24.78;42.04;95754.03;6306082;27;102739;-71
2022/09/05 10:41:49;;;;;;;3.90;3.50;;;;;;;24.82;42.16;95754.19;6309704;27;102898;-68
2022/09/05 10:44:56;;;;;;;3.60;3.30;;;;;;;24.66;41.71;95751.06;6285601;27;103014;-71
2022/09/05 10:48:11;;;;;;;5.17;3.60;;;;;;;24.69;42.14;95753.16;6287785;27;103984;-70
2022/09/05 10:51:22;;;;;;;4.40;3.60;;;;;;;24.74;41.60;95749.59;6266973;27;103324;-70
2022/09/05 10:54:41;;;;;;;3.77;3.47;;;;;;;24.76;41.71;95739.38;6259070;27;103198;-71
2022/09/05 10:58:03;;;;;;;4.30;3.43;;;;;;;24.86;42.48;95735.63;6276900;27;103094;-72
2022/09/05 11:01:24;;;;;;;3.63;3.33;;;;;;;24.93;42.06;95736.78;6291390;27;110033;-69
2022/09/05 11:04:53;;;;;;;3.73;3.43;;;;;;;24.96;42.05;95735.38;6286073;27;102692;-70
2022/09/05 11:08:08;;;;;;;4.27;3.97;;;;;;;24.92;42.66;95727.19;6282659;27;102759;-70
2022/09/05 11:11:21;;;;;;;4.23;3.93;;;;;;;24.92;43.06;95737.88;6293047;27;103118;-68
2022/09/05 11:14:50;;;;;;;4.90;4.00;;;;;;;24.82;42.55;95730.09;6293817;27;103594;-71
2022/09/05 11:18:00;;;;;;;5.47;3.80;;;;;;;24.80;42.93;95737.66;6279903;27;103040;-71
2022/09/05 11:21:11;;;;;;;4.30;3.90;;;;;;;24.78;42.88;95735.28;6291370;27;103231;-70
2022/09/05 11:24:30;;;;;;;4.00;3.60;;;;;;;24.77;43.00;95732.91;6292142;27;102689;-71
2022/09/05 11:27:39;;;;;;;3.90;3.60;;;;;;;24.77;42.69;95727.56;6282692;27;103119;-70
2022/09/05 11:30:52;;;;;;;3.50;3.30;;;;;;;24.77;42.72;95723.00;6264301;27;102811;-70
2022/09/05 11:34:24;;;;;;;3.63;3.33;;;;;;;24.77;42.86;95720.31;6265674;27;102801;-70
2022/09/05 11:38:33;;;;;;;3.30;3.10;;;;;;;24.77;42.70;95723.00;6274396;27;103320;-71
2022/09/05 11:42:16;;;;;;;3.90;3.60;;;;;;;24.77;42.85;95712.28;6284045;27;103874;-71
2022/09/05 11:46:04;;;;;;;3.70;3.40;;;;;;;24.77;42.85;95714.19;6291134;27;103328;-70
2022/09/05 11:49:48;;;;;;;3.83;3.47;;;;;;;24.75;43.00;95713.69;6267533;27;103319;-68
2022/09/05 11:53:36;;;;;;;3.73;3.43;;;;;;;24.73;43.17;95710.53;6252119;27;103410;-71
2022/09/05 11:56:56;;;;;;;5.03;4.63;;;;;;;24.74;42.83;95712.91;6286182;27;103504;-71
2022/09/05 12:00:23;;;;;;;4.50;4.10;;;;;;;24.72;42.83;95709.75;6288196;27;103729;-70
2022/09/05 12:03:44;;;;;;;4.93;4.53;;;;;;;24.70;42.85;95700.44;6278213;27;102904;-70
2022/09/05 12:07:22;;;;;;;4.67;4.27;;;;;;;24.72;42.55;95703.59;6284908;27;103324;-68
2022/09/05 12:10:59;;;;;;;4.53;4.13;;;;;;;24.72;42.02;95696.38;6281114;27;104643;-71
2022/09/05 12:14:22;;;;;;;4.20;3.90;;;;;;;24.74;42.57;95683.47;6277276;27;104361;-70
2022/09/05 12:17:57;;;;;;;4.90;4.50;;;;;;;24.70;42.71;95679.81;6277445;27;103080;-70
2022/09/05 12:21:23;;;;;;;5.00;4.60;;;;;;;24.73;42.47;95689.13;6286188;27;103225;-67
2022/09/05 12:24:32;;;;;;;5.07;4.70;;;;;;;24.72;42.40;95676.84;6282478;27;103287;-68
2022/09/05 12:28:05;;;;;;;5.20;4.83;;;;;;;24.73;42.45;95678.41;6282243;27;103021;-71
2022/09/05 12:31:37;;;;;;;5.57;5.17;;;;;;;24.69;41.96;95686.25;6286247;27;103370;-71
2022/09/05 12:35:02;;;;;;;4.70;4.40;;;;;;;24.66;41.65;95686.03;6287252;27;103310;-70
2022/09/05 12:38:33;;;;;;;4.63;4.30;;;;;;;24.70;41.77;95673.69;6273342;27;103815;-70
2022/09/05 12:42:02;;;;;;;5.20;4.80;;;;;;;24.78;41.59;95680.97;6261204;27;103059;-72
2022/09/05 12:45:32;;;;;;;4.67;4.20;;;;;;;24.85;41.88;95675.16;6262368;27;103719;-68
2022/09/05 12:48:45;;;;;;;5.13;4.40;;;;;;;24.89;41.95;95679.59;6267460;27;104179;-70
2022/09/05 12:51:59;;;;;;;4.67;4.37;;;;;;;24.90;42.60;95675.03;6286096;27;103497;-70
2022/09/05 12:55:09;;;;;;;4.70;3.93;;;;;;;24.95;42.47;95675.69;6286516;27;103211;-71
2022/09/05 12:58:21;;;;;;;5.03;4.63;;;;;;;24.95;42.42;95680.25;6277738;27;104011;-71
2022/09/05 13:02:01;;;;;;;4.73;4.40;;;;;;;24.93;42.71;95675.22;6257454;27;102716;-70
2022/09/05 13:05:44;;;;;;;4.20;4.00;;;;;;;24.91;42.62;95671.25;6261264;27;103405;-70
2022/09/05 13:08:51;;;;;;;5.70;4.07;;;;;;;24.90;42.92;95675.81;6277710;27;104251;-72
2022/09/05 13:12:13;;;;;;;4.70;4.40;;;;;;;24.83;42.68;95666.63;6276309;27;103333;-69
2022/09/05 13:15:41;;;;;;;4.53;4.23;;;;;;;24.77;42.00;95666.00;6286768;27;103360;-70
2022/09/05 13:18:47;;;;;;;4.33;4.03;;;;;;;24.73;41.97;95660.47;6279856;27;103927;-70
2022/09/05 13:21:54;;;;;;;4.17;3.87;;;;;;;24.71;42.09;95656.53;6276885;27;102938;-70
2022/09/05 13:25:05;;;;;;;4.17;3.87;;;;;;;24.70;41.12;95668.34;6285974;27;102924;-70
2022/09/05 13:28:13;;;;;;;3.90;3.70;;;;;;;24.68;41.23;95665.16;6281570;27;103385;-70
2022/09/05 13:31:36;;;;;;;4.47;4.07;;;;;;;24.66;40.98;95667.31;6284533;27;102905;-70
2022/09/05 13:35:10;;;;;;;4.03;3.73;;;;;;;24.68;41.30;95665.16;6276134;27;102917;-70
2022/09/05 13:38:42;;;;;;;4.57;4.27;;;;;;;24.68;41.09;95665.16;6280384;27;103161;-69
2022/09/05 13:41:58;;;;;;;4.40;4.10;;;;;;;24.67;40.99;95660.84;6285742;27;102990;-70
2022/09/05 13:45:02;;;;;;;4.80;4.30;;;;;;;24.65;41.02;95663.84;6275427;27;103039;-67
2022/09/05 13:48:26;;;;;;;4.30;3.90;;;;;;;24.67;41.05;95660.84;6281886;27;103461;-67
2022/09/05 13:51:37;;;;;;;3.63;3.40;;;;;;;24.66;40.72;95661.97;6260411;27;103024;-67
2022/09/05 13:54:45;;;;;;;3.83;3.57;;;;;;;24.65;40.58;95658.50;6257932;27;103970;-66
2022/09/05 13:57:58;;;;;;;4.50;4.20;;;;;;;24.67;40.82;95658.19;6265412;27;104165;-67
2022/09/05 14:01:30;;;;;;;3.90;3.70;;;;;;;24.67;40.59;95658.19;6284156;27;103074;-67
2022/09/05 14:05:14;;;;;;;4.23;3.90;;;;;;;24.69;40.80;95654.13;6284419;27;103108;-67
2022/09/05 14:08:54;;;;;;;3.77;3.57;;;;;;;24.69;40.71;95648.00;6270801;27;103506;-67
2022/09/05 14:12:31;;;;;;;4.60;3.80;;;;;;;24.70;40.90;95657.63;6259744;27;102948;-67
2022/09/05 14:15:42;;;;;;;5.37;4.10;;;;;;;24.71;40.59;95659.19;6258968;27;103020;-67
2022/09/05 14:22:07;;;;;;;4.23;3.93;;;;;;;24.70;40.72;95669.13;6289084;27;103549;-67
2022/09/05 14:25:27;;;;;;;4.73;4.10;;;;;;;24.68;40.49;95665.16;6288420;27;103106;-67
2022/09/05 14:28:34;;;;;;;4.27;3.97;;;;;;;24.71;41.03;95667.22;6279922;27;104075;-66
2022/09/05 14:31:51;;;;;;;4.20;3.90;;;;;;;24.70;40.86;95673.69;6279598;27;103877;-67
2022/09/05 14:35:26;;;;;;;4.20;3.80;;;;;;;24.69;41.02;95682.78;6289208;27;102883;-67
2022/09/05 14:39:24;;;;;;;4.10;3.80;;;;;;;24.68;40.98;95675.84;6279939;27;103398;-69
2022/09/05 14:42:52;;;;;;;4.93;3.73;;;;;;;24.65;41.06;95674.56;6254307;27;102790;-67
2022/09/05 14:46:13;;;;;;;4.57;4.17;;;;;;;24.66;41.15;95676.13;6263836;27;102955;-67
2022/09/05 14:49:43;;;;;;;5.07;4.67;;;;;;;24.65;41.25;95676.44;6280044;27;103236;-70
2022/09/05 14:53:00;;;;;;;4.30;4.00;;;;;;;24.66;41.61;95686.03;6277198;27;103365;-67
2022/09/05 14:56:29;;;;;;;4.23;3.93;;;;;;;24.65;41.63;95676.44;6285974;27;102973;-66
2022/09/05 14:59:56;;;;;;;4.20;3.90;;;;;;;24.57;41.52;95680.66;6273669;27;102867;-67
2022/09/05 15:03:20;;;;;;;4.07;3.77;;;;;;;24.60;41.82;95687.28;6282509;27;103414;-67
2022/09/05 15:06:24;;;;;;;5.47;4.60;;;;;;;24.59;41.80;95694.53;6280061;27;103001;-71
2022/09/05 15:09:36;;;;;;;4.67;4.37;;;;;;;24.58;41.72;95687.59;6283877;27;102869;-71
2022/09/05 15:13:04;;;;;;;4.63;4.10;;;;;;;24.51;41.10;95687.22;6289317;27;103063;-71
2022/09/05 15:16:11;;;;;;;4.97;4.57;;;;;;;24.49;42.15;95686.72;6277515;27;103181;-70
2022/09/05 15:20:00;;;;;;;4.10;3.90;;;;;;;24.53;41.50;95684.22;6277658;27;103410;-70
2022/09/05 15:23:14;;;;;;;4.80;4.50;;;;;;;24.56;41.50;95686.31;6246853;27;103338;-71
2022/09/05 15:26:20;;;;;;;4.83;4.40;;;;;;;24.56;41.84;95686.31;6252530;27;103521;-71
2022/09/05 15:29:32;;;;;;;5.37;4.87;;;;;;;24.55;41.72;95688.19;6279783;27;103228;-71
2022/09/05 15:32:37;;;;;;;4.70;4.30;;;;;;;24.56;42.02;95684.44;6286880;27;103709;-71
2022/09/05 15:35:43;;;;;;;6.07;5.47;;;;;;;24.61;42.29;95694.22;6285789;27;104213;-69
2022/09/05 15:38:46;;;;;;;5.87;5.37;;;;;;;24.55;42.25;95692.78;6268320;27;103892;-71
2022/09/05 15:42:12;;;;;;;5.10;4.70;;;;;;;24.63;42.62;95706.19;6285271;27;107589;-72
2022/09/05 15:45:21;;;;;;;6.00;5.50;;;;;;;24.70;42.82;95701.25;6284253;27;103166;-72
2022/09/05 15:48:26;;;;;;;7.83;5.40;;;;;;;24.75;42.99;95708.34;6273661;27;105865;-72